Time;durP1;ratioP1;P1;durP2;ratioP2;P2;SDS_P1;SDS_P2;PMS_P1;PMS_P2;Temp;Humidity;BMP_temperature;BMP_pressure;BME280_temperature;BME280_humidity;BME280_pressure;Samples;Min_cycle;Max_cycle;Signal;HPM_P1;HPM_P2
2022/12/18 00:02:47;;;;;;;16.50;9.57;;;;;;;-7.60;100.00;102026.69;6191747;28;20038;-92
2022/12/18 00:05:50;;;;;;;21.55;9.38;;;;;;;-7.59;100.00;102040.13;6212830;28;20120;-92
2022/12/18 00:08:56;;;;;;;20.65;9.45;;;;;;;-7.64;100.00;102036.66;6213343;28;20053;-91
2022/12/18 00:11:57;;;;;;;18.48;9.10;;;;;;;-7.64;100.00;102032.47;6208796;28;20348;-91
2022/12/18 00:14:59;;;;;;;18.42;9.27;;;;;;;-7.70;100.00;102034.88;6202298;28;20030;-92
2022/12/18 00:18:01;;;;;;;17.38;8.82;;;;;;;-7.74;100.00;102040.66;6197414;28;20420;-92
2022/12/18 00:21:08;;;;;;;21.30;9.80;;;;;;;-7.83;100.00;102041.28;6195489;28;20124;-92
2022/12/18 00:24:10;;;;;;;17.10;8.90;;;;;;;-7.82;100.00;102052.22;6194814;28;20040;-91
2022/12/18 00:27:12;;;;;;;18.15;9.32;;;;;;;-7.83;100.00;102055.53;6191748;28;20042;-91
2022/12/18 00:30:14;;;;;;;16.95;8.75;;;;;;;-7.82;100.00;102053.06;6194797;28;20049;-92
2022/12/18 00:33:16;;;;;;;20.40;9.55;;;;;;;-7.82;100.00;102048.03;6192651;28;20053;-91
2022/12/18 00:36:21;;;;;;;18.17;9.43;;;;;;;-7.79;100.00;102054.78;6193811;28;20509;-92
2022/12/18 00:39:25;;;;;;;18.73;9.43;;;;;;;-7.80;100.00;102050.56;6195757;28;20115;-91
2022/12/18 00:45:48;;;;;;;15.63;9.05;;;;;;;-7.82;100.00;102067.28;6209281;28;20488;-92
2022/12/18 00:48:50;;;;;;;15.23;8.02;;;;;;;-7.79;100.00;102067.34;6192327;28;20050;-91
2022/12/18 00:51:57;;;;;;;19.20;9.48;;;;;;;-7.76;100.00;102069.91;6198458;28;20042;-92
2022/12/18 00:54:59;;;;;;;15.57;8.30;;;;;;;-7.78;100.00;102063.16;6206432;28;20987;-92
2022/12/18 00:58:07;;;;;;;16.55;8.45;;;;;;;-7.79;100.00;102082.44;6192508;28;20334;-91
2022/12/18 01:01:12;;;;;;;18.00;8.00;;;;;;;-7.85;100.00;102073.09;6191904;28;20045;-92
2022/12/18 01:04:14;;;;;;;15.82;8.48;;;;;;;-7.82;100.00;102062.28;6209088;28;20033;-92
2022/12/18 01:07:19;;;;;;;14.38;8.40;;;;;;;-7.81;100.00;102043.84;6200178;28;20038;-92
2022/12/18 01:10:21;;;;;;;17.23;8.40;;;;;;;-7.82;100.00;102052.22;6209835;28;20057;-92
2022/12/18 01:13:23;;;;;;;19.05;8.38;;;;;;;-7.82;100.00;102059.75;6202942;28;20077;-92
2022/12/18 01:16:24;;;;;;;18.27;8.50;;;;;;;-7.83;100.00;102066.41;6206114;28;20045;-91
2022/12/18 01:19:26;;;;;;;14.98;8.20;;;;;;;-7.78;100.00;102074.06;6217112;28;20045;-91
2022/12/18 01:22:28;;;;;;;15.63;7.43;;;;;;;-7.76;100.00;102071.59;6211216;28;20038;-92
2022/12/18 01:25:30;;;;;;;17.42;8.65;;;;;;;-7.80;100.00;102066.50;6205563;28;20506;-91
2022/12/18 01:28:32;;;;;;;15.07;8.32;;;;;;;-7.76;100.00;102056.50;6199357;28;20042;-92
2022/12/18 01:31:34;;;;;;;15.93;8.93;;;;;;;-7.76;100.00;102054.00;6198787;28;20045;-92
2022/12/18 01:34:37;;;;;;;17.05;7.93;;;;;;;-7.78;100.00;102056.47;6198515;28;20054;-92
2022/12/18 01:37:39;;;;;;;22.30;8.98;;;;;;;-7.74;100.00;102068.28;6200453;28;20034;-92
2022/12/18 01:40:41;;;;;;;15.00;7.90;;;;;;;-7.75;100.00;102073.28;6189081;28;20555;-92
2022/12/18 01:43:58;;;;;;;17.40;8.18;;;;;;;-7.81;100.00;102072.34;6195045;28;20038;-92
2022/12/18 01:47:00;;;;;;;16.75;8.32;;;;;;;-7.86;100.00;102078.09;6204461;28;20046;-92
2022/12/18 01:50:09;;;;;;;13.40;7.53;;;;;;;-7.84;100.00;102076.47;6206503;28;20408;-92
2022/12/18 01:53:18;;;;;;;21.83;8.88;;;;;;;-7.86;100.00;102078.09;6203734;28;20527;-92
2022/12/18 01:56:22;;;;;;;15.48;7.20;;;;;;;-7.86;100.00;102083.09;6209994;28;20231;-92
2022/12/18 01:59:24;;;;;;;16.65;8.05;;;;;;;-7.87;100.00;102081.44;6193334;28;20096;-92
2022/12/18 02:02:30;;;;;;;15.32;8.07;;;;;;;-7.88;100.00;102080.56;6210452;28;20467;-92
2022/12/18 02:05:49;;;;;;;14.63;7.45;;;;;;;-7.84;100.00;102084.00;6206897;28;20046;-91
2022/12/18 02:09:02;;;;;;;18.90;8.90;;;;;;;-7.85;100.00;102082.28;6223585;28;20537;-92
2022/12/18 02:12:52;;;;;;;17.73;8.05;;;;;;;-7.85;100.00;102082.28;6199705;28;20077;-92
2022/12/18 02:16:13;;;;;;;17.30;8.35;;;;;;;-7.87;100.00;102079.75;6109820;29;20224;-92
2022/12/18 02:19:52;;;;;;;17.97;8.47;;;;;;;-7.80;100.00;102081.59;6110817;29;20146;-92
2022/12/18 02:23:19;;;;;;;16.30;7.97;;;;;;;-7.78;100.00;102085.78;6112034;29;20073;-92
2022/12/18 02:26:37;;;;;;;13.27;7.78;;;;;;;-7.83;100.00;102086.53;6114928;29;20048;-92
2022/12/18 02:29:50;;;;;;;14.90;7.90;;;;;;;-7.82;100.00;102075.69;6115170;29;20051;-92
2022/12/18 02:33:01;;;;;;;17.92;8.48;;;;;;;-7.82;100.00;102082.38;6131788;28;20036;-91
2022/12/18 02:36:05;;;;;;;18.15;8.45;;;;;;;-7.87;100.00;102082.28;6094154;29;20413;-92
2022/12/18 02:39:10;;;;;;;17.20;8.32;;;;;;;-7.83;100.00;102073.13;6114476;29;20055;-92
2022/12/18 02:42:19;;;;;;;17.08;8.38;;;;;;;-7.79;100.00;102064.84;6100207;29;20040;-93
2022/12/18 02:45:22;;;;;;;18.42;8.50;;;;;;;-7.88;100.00;102057.94;6115522;29;20052;-92
2022/12/18 02:48:35;;;;;;;19.05;9.13;;;;;;;-7.90;100.00;102053.69;6118998;29;20040;-92
2022/12/18 02:51:45;;;;;;;17.38;8.32;;;;;;;-7.91;100.00;102050.34;6159322;28;20353;-92
2022/12/18 02:54:52;;;;;;;18.77;8.25;;;;;;;-7.93;100.00;102054.47;6194488;28;20175;-91
2022/12/18 02:57:58;;;;;;;17.20;8.77;;;;;;;-7.95;100.00;102060.28;6209579;28;20127;-92
2022/12/18 03:01:43;;;;;;;16.33;7.82;;;;;;;-7.98;100.00;102063.59;6211552;28;20050;-91
2022/12/18 03:05:08;;;;;;;14.90;8.30;;;;;;;-8.00;100.00;102062.69;6211559;28;20069;-92
2022/12/18 03:08:18;;;;;;;17.92;9.10;;;;;;;-7.99;100.00;102056.88;6213293;28;20124;-91
2022/12/18 03:12:22;;;;;;;13.38;8.25;;;;;;;-7.95;100.00;102058.63;6203252;28;20046;-92
2022/12/18 03:14:49;;;;;;;18.63;8.75;;;;;;;-7.93;100.00;102062.00;6210609;28;20507;-92
2022/12/18 03:18:21;;;;;;;17.45;9.18;;;;;;;-7.95;100.00;102057.78;6202038;28;20068;-91
2022/12/18 03:21:48;;;;;;;16.67;8.75;;;;;;;-7.97;100.00;102052.72;6175992;28;20050;-92
2022/12/18 03:24:53;;;;;;;17.48;8.82;;;;;;;-7.94;100.00;102057.81;6183902;28;20088;-92
2022/12/18 03:27:58;;;;;;;19.65;9.15;;;;;;;-7.95;100.00;102051.06;6161492;28;20599;-92
2022/12/18 03:31:04;;;;;;;15.70;8.65;;;;;;;-7.96;100.00;102051.06;6185693;28;20058;-91
2022/12/18 03:34:11;;;;;;;17.52;8.40;;;;;;;-8.03;100.00;102045.88;6168554;28;20089;-92
2022/12/18 03:37:17;;;;;;;17.20;8.55;;;;;;;-8.05;100.00;102046.66;6160864;28;20173;-92
2022/12/18 03:40:29;;;;;;;18.40;8.30;;;;;;;-8.08;100.00;102054.16;6184012;28;20069;-92
2022/12/18 03:43:58;;;;;;;16.65;8.63;;;;;;;-8.12;100.00;102047.34;6183872;28;20047;-92
2022/12/18 03:47:16;;;;;;;16.40;8.77;;;;;;;-8.19;100.00;102051.41;6168316;28;20536;-91
2022/12/18 03:50:26;;;;;;;14.23;7.22;;;;;;;-8.19;100.00;102063.13;6185342;28;20058;-91
2022/12/18 03:53:45;;;;;;;15.73;7.53;;;;;;;-8.19;100.00;102065.63;6161947;28;20042;-92
2022/12/18 03:56:55;;;;;;;13.95;7.63;;;;;;;-8.21;100.00;102064.75;6150323;28;20038;-92
2022/12/18 04:00:03;;;;;;;13.30;7.57;;;;;;;-8.22;100.00;102068.91;6203453;28;20050;-92
2022/12/18 04:03:16;;;;;;;11.23;7.07;;;;;;;-8.19;100.00;102073.16;6212071;28;20065;-91
2022/12/18 04:06:22;;;;;;;16.33;8.23;;;;;;;-8.17;100.00;102069.88;6197452;28;20046;-92
2022/12/18 04:09:25;;;;;;;14.68;8.18;;;;;;;-8.17;100.00;102067.38;6219915;28;20090;-92
2022/12/18 04:12:29;;;;;;;17.40;8.15;;;;;;;-8.12;100.00;102055.75;6221862;28;20049;-91
2022/12/18 04:15:35;;;;;;;14.07;7.63;;;;;;;-8.15;100.00;102065.72;6206610;28;20097;-91
2022/12/18 04:18:38;;;;;;;17.45;8.02;;;;;;;-8.09;100.00;102068.38;6205539;28;20431;-92
2022/12/18 04:21:42;;;;;;;15.40;8.25;;;;;;;-8.12;100.00;102069.94;6223299;28;20049;-92
2022/12/18 04:24:46;;;;;;;12.98;8.18;;;;;;;-8.10;100.00;102065.81;6219451;28;20069;-91
2022/12/18 04:27:56;;;;;;;12.43;7.53;;;;;;;-8.15;100.00;102053.16;6209994;28;20083;-92
2022/12/18 04:30:57;;;;;;;14.95;7.90;;;;;;;-8.15;100.00;102060.69;6210440;28;20805;-92
2022/12/18 04:33:59;;;;;;;14.75;8.02;;;;;;;-8.15;100.00;102062.34;6206492;28;20082;-92
2022/12/18 04:37:04;;;;;;;15.77;7.90;;;;;;;-8.14;100.00;102069.09;6225697;28;20045;-92
2022/12/18 04:40:10;;;;;;;14.20;7.30;;;;;;;-8.16;100.00;102066.53;6210378;28;20041;-91
2022/12/18 04:43:16;;;;;;;14.68;7.97;;;;;;;-8.15;100.00;102063.19;6200646;28;20400;-91
2022/12/18 04:46:18;;;;;;;15.80;7.40;;;;;;;-8.20;100.00;102053.88;6198502;28;20411;-92
2022/12/18 04:49:20;;;;;;;15.88;7.72;;;;;;;-8.20;100.00;102049.69;6203871;28;20112;-91
2022/12/18 04:52:22;;;;;;;12.70;7.15;;;;;;;-8.17;100.00;102049.78;6203233;28;20049;-92
2022/12/18 04:55:30;;;;;;;13.60;7.43;;;;;;;-8.17;100.00;102054.81;6207949;28;20042;-92
2022/12/18 04:58:32;;;;;;;17.13;7.88;;;;;;;-8.14;100.00;102069.09;6209238;28;20037;-91
2022/12/18 05:01:34;;;;;;;11.90;7.20;;;;;;;-8.14;100.00;102069.09;6206641;28;20041;-91
2022/12/18 05:04:37;;;;;;;16.83;7.80;;;;;;;-8.19;100.00;102051.41;6197836;28;20050;-92
2022/12/18 05:07:39;;;;;;;14.43;7.07;;;;;;;-8.17;100.00;102053.94;6200927;28;20483;-91
2022/12/18 05:10:42;;;;;;;16.25;7.75;;;;;;;-8.15;100.00;102048.13;6205496;28;20529;-92
2022/12/18 05:13:44;;;;;;;13.02;6.93;;;;;;;-8.18;100.00;102067.31;6208240;28;20041;-92
2022/12/18 05:16:46;;;;;;;13.90;7.55;;;;;;;-8.26;100.00;102067.97;6200923;28;20741;-91
2022/12/18 05:19:48;;;;;;;13.45;6.95;;;;;;;-8.29;100.00;102062.91;6191539;28;20054;-91
2022/12/18 05:22:50;;;;;;;14.73;7.25;;;;;;;-8.35;100.00;102067.75;6197641;28;20041;-92
2022/12/18 05:25:53;;;;;;;11.50;7.22;;;;;;;-8.29;100.00;102064.56;6207650;28;20034;-92
2022/12/18 05:28:55;;;;;;;11.90;6.35;;;;;;;-8.23;100.00;102067.19;6203361;28;20120;-91
2022/12/18 05:31:56;;;;;;;14.32;7.53;;;;;;;-8.22;100.00;102071.44;6189872;28;20136;-92
2022/12/18 05:34:58;;;;;;;15.55;6.90;;;;;;;-8.26;100.00;102074.69;6196984;28;20461;-91
2022/12/18 05:38:00;;;;;;;13.07;7.05;;;;;;;-8.29;100.00;102079.63;6197263;28;20540;-91
2022/12/18 05:41:03;;;;;;;14.38;7.10;;;;;;;-8.21;100.00;102078.13;6196763;28;20622;-92
2022/12/18 05:44:04;;;;;;;15.43;7.35;;;;;;;-8.21;100.00;102082.31;6199997;28;20041;-92
2022/12/18 05:47:06;;;;;;;13.05;6.53;;;;;;;-8.23;100.00;102078.09;6206044;28;20053;-91
2022/12/18 05:50:09;;;;;;;15.35;6.78;;;;;;;-8.21;100.00;102077.28;6222354;28;20084;-92
2022/12/18 05:53:13;;;;;;;14.13;7.78;;;;;;;-8.18;100.00;102088.25;6201375;28;20184;-92
2022/12/18 05:56:18;;;;;;;12.77;6.95;;;;;;;-8.16;100.00;102091.66;6203181;28;20030;-91
2022/12/18 05:59:20;;;;;;;13.65;6.82;;;;;;;-8.13;100.00;102080.81;6203572;28;20041;-91
2022/12/18 06:02:22;;;;;;;12.85;7.35;;;;;;;-8.11;100.00;102084.22;6204834;28;20057;-91
2022/12/18 06:05:24;;;;;;;12.02;6.55;;;;;;;-8.05;100.00;102091.88;6210699;28;20056;-91
2022/12/18 06:08:25;;;;;;;14.07;7.07;;;;;;;-8.10;100.00;102084.28;6207360;28;20041;-92
2022/12/18 06:11:27;;;;;;;12.27;6.88;;;;;;;-8.08;100.00;102089.31;6207371;28;20053;-92
2022/12/18 06:14:29;;;;;;;11.52;6.72;;;;;;;-8.02;100.00;102099.53;6202100;28;20042;-92
2022/12/18 06:17:32;;;;;;;15.18;6.88;;;;;;;-8.02;100.00;102102.03;6204991;28;20068;-92
2022/12/18 06:20:36;;;;;;;13.57;6.70;;;;;;;-8.09;100.00;102087.63;6212338;28;20555;-92
2022/12/18 06:23:38;;;;;;;17.25;7.00;;;;;;;-8.12;100.00;102087.53;6198896;28;20042;-92
2022/12/18 06:26:41;;;;;;;11.65;6.65;;;;;;;-8.12;100.00;102087.53;6208339;28;20035;-92
2022/12/18 06:29:42;;;;;;;15.18;7.57;;;;;;;-8.07;100.00;102083.50;6202834;28;20046;-92
2022/12/18 06:32:49;;;;;;;11.65;7.28;;;;;;;-8.08;100.00;102084.28;6204955;28;20053;-91
2022/12/18 06:36:05;;;;;;;12.73;6.60;;;;;;;-8.10;100.00;102081.75;6208116;28;20042;-91
2022/12/18 06:39:07;;;;;;;13.70;7.50;;;;;;;-8.06;100.00;102083.50;6205274;28;20623;-92
2022/12/18 06:42:09;;;;;;;12.20;6.60;;;;;;;-8.07;100.00;102091.88;6204724;28;20124;-92
2022/12/18 06:45:11;;;;;;;15.48;6.43;;;;;;;-8.08;100.00;102087.66;6207461;28;20132;-91
2022/12/18 06:48:13;;;;;;;11.68;5.95;;;;;;;-8.06;100.00;102088.53;6203858;28;20037;-92
2022/12/18 06:51:24;;;;;;;14.00;6.53;;;;;;;-8.07;100.00;102086.00;6199751;28;20415;-92
2022/12/18 06:54:25;;;;;;;;;;;;;;;-8.08;100.00;102099.38;6201659;28;20447;-92
2022/12/18 06:57:27;;;;;;;16.23;6.80;;;;;;;-8.05;100.00;102096.91;6219760;28;19955;-92
2022/12/18 07:00:29;;;;;;;11.05;6.40;;;;;;;-8.03;100.00;102098.66;6207456;28;20038;-92
2022/12/18 07:03:31;;;;;;;12.65;6.68;;;;;;;-8.03;100.00;102103.66;6207427;28;20132;-91
2022/12/18 07:06:33;;;;;;;14.50;6.90;;;;;;;-8.02;100.00;102102.88;6200646;28;20411;-92
2022/12/18 07:09:35;;;;;;;15.75;6.72;;;;;;;-7.91;100.00;102105.63;6205945;28;20042;-91
2022/12/18 07:12:37;;;;;;;13.73;7.07;;;;;;;-7.95;100.00;102100.47;6201303;28;20223;-92
2022/12/18 07:15:38;;;;;;;11.63;6.63;;;;;;;-7.99;100.00;102109.63;6207058;28;20448;-92
2022/12/18 07:18:40;;;;;;;16.75;6.55;;;;;;;-7.99;100.00;102118.84;6200780;28;20520;-91
2022/12/18 07:21:42;;;;;;;15.77;7.28;;;;;;;-7.89;100.00;102123.25;6208122;28;20049;-92
2022/12/18 07:24:44;;;;;;;11.25;6.95;;;;;;;-7.92;100.00;102131.56;6201970;28;20503;-91
2022/12/18 07:27:45;;;;;;;12.70;7.13;;;;;;;-7.82;100.00;102142.69;6202912;28;20096;-92
2022/12/18 07:30:47;;;;;;;12.38;6.93;;;;;;;-7.84;100.00;102141.81;6202302;28;20046;-92
2022/12/18 07:33:50;;;;;;;13.65;6.32;;;;;;;-7.85;100.00;102137.56;6203206;28;20136;-91
2022/12/18 07:36:51;;;;;;;13.45;7.35;;;;;;;-7.81;100.00;102141.88;6202349;28;20053;-91
2022/12/18 07:39:53;;;;;;;13.90;7.28;;;;;;;-7.87;100.00;102140.06;6205654;28;20049;-92
2022/12/18 07:42:55;;;;;;;12.57;7.72;;;;;;;-7.92;100.00;102139.13;6206821;28;20357;-91
2022/12/18 07:45:56;;;;;;;11.90;6.57;;;;;;;-7.89;100.00;102140.84;6202138;28;20045;-91
2022/12/18 07:48:58;;;;;;;12.48;6.78;;;;;;;-7.86;100.00;102138.41;6207690;28;20041;-92
2022/12/18 07:52:01;;;;;;;16.95;7.70;;;;;;;-7.77;100.00;102146.16;6205911;28;20084;-92
2022/12/18 07:55:03;;;;;;;14.85;7.35;;;;;;;-7.78;100.00;102139.41;6198296;28;20038;-91
2022/12/18 07:58:05;;;;;;;14.88;7.10;;;;;;;-7.69;100.00;102147.16;6207281;28;20069;-91
2022/12/18 08:01:10;;;;;;;12.73;6.60;;;;;;;-7.62;100.00;102135.59;6212569;28;20097;-91
2022/12/18 08:04:12;;;;;;;14.95;7.25;;;;;;;-7.54;100.00;102129.06;6196979;28;20046;-92
2022/12/18 08:07:14;;;;;;;12.82;7.15;;;;;;;-7.43;100.00;102126.75;6205293;28;20034;-92
2022/12/18 08:10:16;;;;;;;13.57;6.95;;;;;;;-7.50;100.00;102122.41;6208620;28;20172;-92
2022/12/18 08:13:18;;;;;;;14.30;6.90;;;;;;;-7.49;100.00;102121.63;6205236;28;20031;-91
2022/12/18 08:16:21;;;;;;;14.23;6.97;;;;;;;-7.44;100.00;102115.84;6206965;28;20041;-92
2022/12/18 08:19:23;;;;;;;13.13;7.75;;;;;;;-7.42;100.00;102118.41;6203540;28;20042;-92
2022/12/18 08:22:25;;;;;;;14.18;6.50;;;;;;;-7.22;100.00;102122.19;6204540;28;20046;-91
2022/12/18 08:25:27;;;;;;;14.10;6.93;;;;;;;-7.08;100.00;102117.44;6203401;28;20109;-92
2022/12/18 08:28:28;;;;;;;13.95;7.10;;;;;;;-7.05;100.00;102104.06;6200912;28;20058;-91
2022/12/18 08:31:30;;;;;;;15.15;7.43;;;;;;;-7.05;100.00;102109.09;6197437;28;20046;-92
2022/12/18 08:34:33;;;;;;;15.85;6.90;;;;;;;-7.00;100.00;102103.31;6199904;28;20112;-92
2022/12/18 08:37:34;;;;;;;12.65;6.25;;;;;;;-6.99;100.00;102104.16;6205874;28;20076;-91
2022/12/18 08:40:39;;;;;;;12.15;5.80;;;;;;;-6.93;100.00;102104.28;6202010;28;20042;-92
2022/12/18 08:47:02;;;;;;;17.23;8.13;;;;;;;-6.82;100.00;102100.28;6211114;28;20203;-91
2022/12/18 08:50:04;;;;;;;15.43;8.15;;;;;;;-6.73;100.00;102108.00;6217925;28;20044;-92
2022/12/18 08:53:06;;;;;;;11.43;6.82;;;;;;;-6.71;100.00;102102.97;6200936;28;21323;-91
2022/12/18 08:56:07;;;;;;;16.75;7.45;;;;;;;-6.79;100.00;102107.88;6198933;28;20045;-91
2022/12/18 08:59:09;;;;;;;12.65;6.57;;;;;;;-6.81;100.00;102118.75;6203248;28;20042;-90
2022/12/18 09:02:20;;;;;;;14.27;6.78;;;;;;;-6.85;100.00;102117.00;6206743;28;20396;-92
2022/12/18 09:05:22;;;;;;;11.40;6.05;;;;;;;-6.84;100.00;102119.53;6202410;28;20056;-91
2022/12/18 09:08:24;;;;;;;12.48;6.45;;;;;;;-6.79;100.00;102123.00;6201198;28;20045;-91
2022/12/18 09:11:27;;;;;;;12.10;6.68;;;;;;;-6.76;100.00;102112.13;6202499;28;20194;-91
2022/12/18 09:14:30;;;;;;;18.08;6.93;;;;;;;-6.70;100.00;102118.97;6197142;28;20392;-91
2022/12/18 09:17:31;;;;;;;17.90;7.60;;;;;;;-6.63;100.00;102108.16;6204369;28;20525;-91
2022/12/18 09:20:33;;;;;;;14.82;6.78;;;;;;;-6.55;100.00;102109.16;6200807;28;20499;-91
2022/12/18 09:23:35;;;;;;;16.67;7.38;;;;;;;-6.53;100.00;102098.28;6205131;28;20034;-91
2022/12/18 09:26:36;;;;;;;14.57;6.55;;;;;;;-6.47;100.00;102101.72;6203658;28;20554;-91
2022/12/18 09:29:40;;;;;;;18.92;8.35;;;;;;;-6.45;100.00;102105.97;6192918;28;20221;-91
2022/12/18 09:32:42;;;;;;;13.48;6.95;;;;;;;-6.41;100.00;102115.28;6191733;28;20434;-91
2022/12/18 09:35:45;;;;;;;10.88;6.18;;;;;;;-6.32;100.00;102107.84;6201188;28;20108;-91
2022/12/18 09:38:47;;;;;;;13.05;6.40;;;;;;;-6.20;100.00;102112.25;6217796;28;20042;-91
2022/12/18 09:41:54;;;;;;;8.27;5.47;;;;;;;-5.98;100.00;102115.09;6199287;28;20084;-91
2022/12/18 09:44:58;;;;;;;10.88;5.18;;;;;;;-5.81;100.00;102126.25;6198733;28;20589;-91
2022/12/18 09:48:00;;;;;;;10.18;5.05;;;;;;;-5.67;100.00;102139.03;6200265;28;20037;-91
2022/12/18 09:51:12;;;;;;;9.98;4.32;;;;;;;-5.49;100.00;102139.31;6199952;28;20042;-91
2022/12/18 09:54:27;;;;;;;8.70;4.75;;;;;;;-5.29;100.00;102151.31;6204086;28;20046;-91
2022/12/18 09:57:33;;;;;;;9.40;4.50;;;;;;;-5.12;100.00;102154.91;6216404;28;20038;-90
2022/12/18 10:00:35;;;;;;;8.85;4.75;;;;;;;-4.98;100.00;102158.44;6214939;28;20038;-90
2022/12/18 10:03:37;;;;;;;8.85;4.57;;;;;;;-4.87;100.00;102152.66;6218617;28;20050;-90
2022/12/18 10:06:45;;;;;;;7.68;4.68;;;;;;;-4.79;100.00;102154.44;6197810;28;20514;-90
2022/12/18 10:10:22;;;;;;;10.98;5.25;;;;;;;-4.67;100.00;102160.44;6214879;28;20050;-91
2022/12/18 10:13:51;;;;;;;7.63;4.93;;;;;;;-4.49;100.00;102165.69;6199724;28;20384;-91
2022/12/18 10:17:02;;;;;;;8.70;4.22;;;;;;;-4.32;100.00;102160.81;6201989;28;20038;-90
2022/12/18 10:20:23;;;;;;;5.15;4.13;;;;;;;-4.26;100.00;102148.22;6202320;28;20136;-91
2022/12/18 10:23:24;;;;;;;9.35;4.55;;;;;;;-4.20;100.00;102148.28;6194142;28;20073;-91
2022/12/18 10:26:26;;;;;;;7.55;4.78;;;;;;;-4.14;100.00;102143.25;6204354;28;20046;-91
2022/12/18 10:29:28;;;;;;;7.70;4.32;;;;;;;-4.06;100.00;102150.06;6201126;28;20391;-91
2022/12/18 10:32:30;;;;;;;8.57;5.47;;;;;;;-3.98;100.00;102140.84;6204312;28;20049;-90
2022/12/18 10:35:32;;;;;;;6.65;3.90;;;;;;;-3.91;100.00;102135.00;6198691;28;20045;-90
2022/12/18 10:38:34;;;;;;;7.90;4.40;;;;;;;-3.84;100.00;102141.78;6202367;28;20045;-91
2022/12/18 10:41:37;;;;;;;8.13;4.03;;;;;;;-3.72;100.00;102130.91;6199255;28;20050;-90
2022/12/18 10:44:39;;;;;;;7.25;4.15;;;;;;;-3.63;100.00;102130.09;6197549;28;20041;-90
2022/12/18 10:47:48;;;;;;;11.02;5.43;;;;;;;-3.58;100.00;102125.91;6207992;28;20128;-90
2022/12/18 10:50:51;;;;;;;6.68;3.85;;;;;;;-3.55;100.00;102124.25;6196062;28;20313;-90
2022/12/18 10:54:23;;;;;;;9.60;4.38;;;;;;;-3.54;100.00;102123.41;6208289;28;20180;-89
2022/12/18 10:57:25;;;;;;;6.93;4.38;;;;;;;-3.48;100.00;102115.00;6205199;28;20042;-90
2022/12/18 11:00:30;;;;;;;6.55;4.05;;;;;;;-3.43;100.00;102123.44;6198407;28;20526;-90
2022/12/18 11:04:05;;;;;;;8.75;4.35;;;;;;;-3.32;100.00;102110.88;6213606;28;20085;-90
2022/12/18 11:07:08;;;;;;;7.93;3.75;;;;;;;-3.17;100.00;102095.72;6204697;28;20042;-90
2022/12/18 11:10:17;;;;;;;6.88;3.78;;;;;;;-3.05;100.00;102085.63;6211499;28;20046;-90
2022/12/18 11:13:22;;;;;;;6.20;4.03;;;;;;;-2.95;100.00;102094.09;6202238;28;20039;-90
2022/12/18 11:16:24;;;;;;;6.60;3.55;;;;;;;-2.92;100.00;102096.63;6201725;28;20054;-90
2022/12/18 11:19:39;;;;;;;7.85;3.60;;;;;;;-2.87;100.00;102097.50;6199469;28;20042;-90
2022/12/18 11:22:42;;;;;;;6.55;4.07;;;;;;;-2.87;100.00;102102.56;6229932;28;20053;-89
2022/12/18 11:25:53;;;;;;;8.13;4.05;;;;;;;-2.91;100.00;102103.38;6214324;28;20068;-90
2022/12/18 11:29:17;;;;;;;8.27;4.22;;;;;;;-2.94;100.00;102108.44;6202073;28;20470;-90
2022/12/18 11:32:37;;;;;;;5.55;4.15;;;;;;;-2.99;100.00;102094.09;6201905;28;20496;-90
2022/12/18 11:35:49;;;;;;;8.07;4.03;;;;;;;-3.03;100.00;102088.19;6210525;28;20602;-90
2022/12/18 11:38:56;;;;;;;8.65;3.15;;;;;;;-3.02;100.00;102074.66;6204491;28;20434;-90
2022/12/18 11:42:10;;;;;;;5.70;3.63;;;;;;;-3.05;100.00;102057.78;6210924;28;20164;-90
2022/12/18 11:45:12;;;;;;;4.97;3.67;;;;;;;-3.00;100.00;102046.81;6207269;28;20042;-90
2022/12/18 11:48:56;;;;;;;5.55;3.30;;;;;;;-3.01;100.00;102050.16;6204420;28;20407;-90
2022/12/18 11:52:19;;;;;;;8.05;3.55;;;;;;;-3.04;100.00;102035.81;6184880;28;20069;-90
2022/12/18 11:55:48;;;;;;;5.60;3.60;;;;;;;-3.07;100.00;102030.75;6202770;28;20156;-89
2022/12/18 11:59:00;;;;;;;8.18;3.95;;;;;;;-3.12;100.00;102029.91;6186772;28;20432;-90
2022/12/18 12:02:30;;;;;;;10.20;4.57;;;;;;;-3.22;100.00;102028.19;6206067;28;20097;-89
2022/12/18 12:05:43;;;;;;;;;;;;;;;-3.36;100.00;102033.19;6193148;28;20361;-89
2022/12/18 12:09:00;;;;;;;7.03;3.72;;;;;;;-3.45;100.00;102026.44;6207919;28;19952;-90
2022/12/18 12:12:23;;;;;;;6.70;4.15;;;;;;;-3.54;100.00;102044.13;6204577;28;20081;-90
2022/12/18 12:15:35;;;;;;;7.03;3.92;;;;;;;-3.62;100.00;102030.59;6196604;28;20119;-90
2022/12/18 12:18:46;;;;;;;6.95;3.88;;;;;;;-3.69;100.00;102022.13;6194652;28;20618;-90
2022/12/18 12:21:53;;;;;;;6.75;4.20;;;;;;;-3.73;100.00;102031.38;6176551;28;20220;-90
2022/12/18 12:25:16;;;;;;;7.57;3.65;;;;;;;-3.72;100.00;102030.53;6204756;28;20522;-90
2022/12/18 12:29:03;;;;;;;6.78;3.97;;;;;;;-3.71;100.00;102023.78;6197396;28;20046;-89
2022/12/18 12:32:20;;;;;;;7.28;3.80;;;;;;;-3.59;100.00;102020.47;6227038;28;20337;-89
2022/12/18 12:35:53;;;;;;;5.75;3.22;;;;;;;-3.45;100.00;102013.78;6206075;28;20496;-89
2022/12/18 12:38:59;;;;;;;7.00;3.38;;;;;;;-3.33;100.00;102013.81;6211508;28;20042;-89
2022/12/18 12:45:50;;;;;;;8.00;4.00;;;;;;;-3.16;100.00;102002.88;6195902;28;20125;-90
2022/12/18 12:48:57;;;;;;;9.48;3.85;;;;;;;-3.11;100.00;101994.44;6207709;28;20053;-89
2022/12/18 12:52:12;;;;;;;7.85;3.47;;;;;;;-3.05;100.00;101983.47;6223327;28;20454;-90
2022/12/18 12:55:19;;;;;;;7.45;3.30;;;;;;;-3.04;100.00;101986.00;6203642;28;20041;-89
2022/12/18 12:58:53;;;;;;;7.72;3.55;;;;;;;-2.94;100.00;102002.03;6206112;28;20050;-89
2022/12/18 13:02:19;;;;;;;6.72;2.70;;;;;;;-2.89;100.00;102000.34;6209223;28;20450;-89
2022/12/18 13:05:49;;;;;;;4.20;2.30;;;;;;;-2.84;100.00;101996.13;6200805;28;20037;-89
2022/12/18 13:08:54;;;;;;;4.70;2.10;;;;;;;-2.81;100.00;101985.16;6205428;28;20068;-89
2022/12/18 13:15:39;;;;;;;4.40;2.60;;;;;;;-2.76;100.00;101983.47;6202319;28;20576;-89
2022/12/18 13:18:51;;;;;;;3.53;2.40;;;;;;;-2.74;100.00;101993.63;6204080;28;20038;-88
2022/12/18 13:21:55;;;;;;;4.07;2.17;;;;;;;-2.76;100.00;101998.66;6220948;28;20038;-88
2022/12/18 13:24:57;;;;;;;5.38;2.28;;;;;;;-2.75;100.00;102002.06;6205196;28;20053;-88
2022/12/18 13:28:13;;;;;;;6.40;2.80;;;;;;;-2.75;100.00;101989.41;6201686;28;20053;-88
2022/12/18 13:31:30;;;;;;;4.22;2.30;;;;;;;-2.83;100.00;101990.25;6201728;28;20042;-88
2022/12/18 13:34:32;;;;;;;6.10;3.00;;;;;;;-2.87;100.00;101992.78;6198057;28;20045;-88
2022/12/18 13:37:50;;;;;;;4.88;2.80;;;;;;;-2.91;100.00;101991.91;6202660;28;21209;-88
2022/12/18 13:40:59;;;;;;;7.35;3.95;;;;;;;-2.93;100.00;101996.16;6201843;28;20042;-88
2022/12/18 13:44:40;;;;;;;7.05;4.47;;;;;;;-2.94;100.00;101983.47;6204176;28;20045;-88
2022/12/18 13:47:43;;;;;;;8.10;4.43;;;;;;;-2.96;100.00;101986.00;6134838;28;20552;-88
2022/12/18 13:51:01;;;;;;;6.60;4.45;;;;;;;-3.00;100.00;101971.66;6134134;28;20333;-88
2022/12/18 13:54:36;;;;;;;7.15;4.20;;;;;;;-3.09;100.00;101959.81;6135515;28;20039;-88
2022/12/18 13:57:40;;;;;;;9.60;4.20;;;;;;;-3.13;100.00;101963.22;6136431;28;20183;-88
2022/12/18 14:00:42;;;;;;;9.75;4.90;;;;;;;-3.17;100.00;101961.50;6135761;28;20459;-88
2022/12/18 14:03:46;;;;;;;7.32;4.68;;;;;;;-3.22;100.00;101959.81;6134660;28;20063;-88
2022/12/18 14:06:52;;;;;;;12.13;5.75;;;;;;;-3.30;100.00;101942.09;6133957;28;20043;-88
2022/12/18 14:10:00;;;;;;;10.02;5.40;;;;;;;-3.36;100.00;101937.00;6133703;28;20055;-88
2022/12/18 14:13:32;;;;;;;11.77;7.30;;;;;;;-3.39;100.00;101925.19;6134242;28;20178;-88
2022/12/18 14:16:34;;;;;;;13.02;7.43;;;;;;;-3.46;100.00;101919.25;6133395;28;20159;-88
2022/12/18 14:19:42;;;;;;;10.95;6.63;;;;;;;-3.54;100.00;101910.81;6118174;28;20047;-88
2022/12/18 14:22:46;;;;;;;15.85;7.63;;;;;;;-3.59;100.00;101901.53;6119544;28;20496;-88
2022/12/18 14:25:48;;;;;;;15.00;8.32;;;;;;;-3.69;100.00;101886.34;6209732;28;20379;-88
2022/12/18 14:28:50;;;;;;;13.95;8.30;;;;;;;-3.72;100.00;101871.16;6207349;28;20626;-88
2022/12/18 14:32:22;;;;;;;16.70;9.15;;;;;;;-3.79;100.00;101869.44;6209425;28;20049;-88